Time;durP1;ratioP1;P1;durP2;ratioP2;P2;SDS_P1;SDS_P2;PMS_P1;PMS_P2;Temp;Humidity;BMP_temperature;BMP_pressure;BME280_temperature;BME280_humidity;BME280_pressure;Samples;Min_cycle;Max_cycle;Signal;HPM_P1;HPM_P2
2022/04/07 00:00:04;;;;;;;4.73;4.33;;;10.40;99.90;;;;;;5013804;28;20995;-72
2022/04/07 00:02:29;;;;;;;7.57;5.00;;;10.30;99.90;;;;;;5014053;28;20171;-72
2022/04/07 00:04:55;;;;;;;5.40;4.90;;;10.30;99.90;;;;;;5013611;28;20418;-72
2022/04/07 00:07:20;;;;;;;4.27;3.80;;;10.00;99.90;;;;;;5013908;28;20566;-72
2022/04/07 00:09:46;;;;;;;4.03;3.47;;;10.00;99.90;;;;;;5013680;28;20164;-72
2022/04/07 00:12:11;;;;;;;4.37;2.87;;;10.00;99.90;;;;;;5013984;28;20242;-72
2022/04/07 00:14:37;;;;;;;3.33;2.63;;;10.00;99.90;;;;;;5013880;28;20639;-72
2022/04/07 00:17:03;;;;;;;6.73;2.50;;;9.90;99.90;;;;;;5013740;28;20191;-71
2022/04/07 00:19:29;;;;;;;2.80;2.53;;;9.80;99.90;;;;;;5013364;28;20183;-72
2022/04/07 00:21:57;;;;;;;2.30;2.10;;;9.90;99.90;;;;;;5013402;28;20776;-72
2022/04/07 00:24:23;;;;;;;3.40;2.20;;;9.80;99.90;;;;;;5013969;28;20230;-71
2022/04/07 00:26:48;;;;;;;2.10;2.00;;;9.90;99.90;;;;;;5013252;28;20524;-72
2022/04/07 00:29:14;;;;;;;1.90;1.80;;;9.80;99.90;;;;;;5013556;28;20912;-72
2022/04/07 00:31:40;;;;;;;2.70;2.50;;;9.80;99.90;;;;;;5013077;28;20172;-72
2022/04/07 00:34:07;;;;;;;3.10;2.90;;;9.90;99.90;;;;;;5013819;28;20175;-72
2022/04/07 00:36:32;;;;;;;3.43;3.13;;;9.90;99.90;;;;;;5012852;28;20217;-72
2022/04/07 00:38:58;;;;;;;3.73;3.43;;;9.90;99.90;;;;;;5013463;28;20998;-72
2022/04/07 00:41:23;;;;;;;4.67;4.20;;;10.00;99.90;;;;;;5012992;28;20574;-72
2022/04/07 00:43:50;;;;;;;5.20;4.70;;;9.90;99.90;;;;;;5013320;28;20207;-72
2022/04/07 00:46:16;;;;;;;4.93;4.23;;;9.90;99.90;;;;;;5013419;28;20182;-72
2022/04/07 00:48:41;;;;;;;4.60;4.30;;;9.90;99.90;;;;;;5013021;28;20450;-72
2022/04/07 00:51:07;;;;;;;4.03;3.60;;;9.90;99.90;;;;;;5012967;28;20176;-72
2022/04/07 00:53:32;;;;;;;4.30;3.90;;;9.90;99.90;;;;;;5013156;28;20597;-72
2022/04/07 00:56:00;;;;;;;3.87;2.97;;;9.90;99.90;;;;;;5013082;28;20196;-71
2022/04/07 00:58:29;;;;;;;3.90;3.10;;;9.90;99.90;;;;;;5012940;28;20169;-71
2022/04/07 01:00:56;;;;;;;3.20;2.90;;;10.00;99.90;;;;;;5012851;28;20445;-72
2022/04/07 01:03:22;;;;;;;3.20;2.90;;;9.90;99.90;;;;;;5013593;28;20402;-72
2022/04/07 01:05:49;;;;;;;3.33;3.03;;;10.00;99.90;;;;;;5015926;28;20537;-72
2022/04/07 01:08:15;;;;;;;3.33;2.87;;;10.00;99.90;;;;;;5012941;28;20238;-72
2022/04/07 01:10:42;;;;;;;2.90;2.70;;;10.10;99.90;;;;;;5012362;28;20438;-72
2022/04/07 01:13:08;;;;;;;2.83;2.63;;;10.10;99.90;;;;;;5012894;28;20175;-71
2022/04/07 01:15:34;;;;;;;3.10;2.53;;;10.10;99.90;;;;;;5011539;28;20446;-71
2022/04/07 01:18:03;;;;;;;4.50;3.30;;;10.10;99.90;;;;;;5011039;28;20422;-71
2022/04/07 01:20:29;;;;;;;2.37;2.27;;;10.10;99.90;;;;;;5012383;28;20261;-71
2022/04/07 01:22:56;;;;;;;2.60;2.40;;;10.20;99.90;;;;;;5012590;28;20996;-72
2022/04/07 01:25:23;;;;;;;2.70;2.30;;;10.20;99.90;;;;;;5012346;28;20786;-72
2022/04/07 01:27:49;;;;;;;2.17;2.07;;;10.20;99.90;;;;;;5010273;28;21292;-72
2022/04/07 01:30:15;;;;;;;3.30;2.67;;;10.20;99.90;;;;;;5011854;28;20460;-72
2022/04/07 01:32:53;;;;;;;3.70;2.20;;;10.20;99.90;;;;;;5012273;28;20410;-72
2022/04/07 01:35:22;;;;;;;2.57;2.37;;;10.20;99.90;;;;;;5012236;28;20827;-72
2022/04/07 01:37:50;;;;;;;2.10;1.90;;;10.20;99.90;;;;;;5012398;28;20411;-71
2022/04/07 01:40:18;;;;;;;2.20;1.73;;;10.20;99.90;;;;;;5012110;28;20468;-72
2022/04/07 01:42:47;;;;;;;2.80;2.00;;;10.20;99.90;;;;;;5012285;28;20428;-72
2022/04/07 01:45:13;;;;;;;1.97;1.80;;;10.30;99.90;;;;;;5012308;28;20430;-72
2022/04/07 01:47:41;;;;;;;2.50;2.30;;;10.30;99.90;;;;;;5012244;28;20516;-72
2022/04/07 01:50:09;;;;;;;2.13;1.93;;;10.20;99.90;;;;;;5012165;28;20461;-72
2022/04/07 01:52:39;;;;;;;4.23;2.10;;;10.20;99.90;;;;;;5012224;28;20410;-72
2022/04/07 01:55:05;;;;;;;1.87;1.70;;;10.20;99.90;;;;;;5011104;28;20446;-72
2022/04/07 01:57:32;;;;;;;2.00;1.80;;;10.20;99.90;;;;;;5013400;28;20908;-72
2022/04/07 01:59:59;;;;;;;4.90;2.23;;;10.20;99.90;;;;;;5012606;28;20501;-72
2022/04/07 02:02:25;;;;;;;2.33;2.13;;;10.30;99.90;;;;;;5012597;28;20453;-72
2022/04/07 02:05:03;;;;;;;2.00;1.80;;;10.20;99.90;;;;;;5012495;28;20442;-72
2022/04/07 02:07:32;;;;;;;2.90;2.30;;;10.20;99.90;;;;;;5010051;28;20488;-72
2022/04/07 02:09:59;;;;;;;3.83;2.40;;;10.30;99.90;;;;;;5011446;28;20813;-72
2022/04/07 02:12:27;;;;;;;2.00;1.90;;;10.30;99.90;;;;;;5011946;28;20505;-72
2022/04/07 02:14:53;;;;;;;1.83;1.60;;;10.30;99.90;;;;;;5010405;28;20931;-72
2022/04/07 02:17:20;;;;;;;2.50;2.00;;;10.30;99.90;;;;;;5012123;28;20411;-72
2022/04/07 02:19:50;;;;;;;4.40;2.03;;;10.30;99.90;;;;;;5011194;28;20502;-72
2022/04/07 02:22:16;;;;;;;2.07;1.80;;;10.30;99.90;;;;;;5012317;28;20414;-72
2022/04/07 02:24:41;;;;;;;2.00;1.83;;;10.30;99.90;;;;;;5014842;28;20433;-72
2022/04/07 02:27:08;;;;;;;1.87;1.63;;;10.40;99.90;;;;;;5017651;28;21045;-72
2022/04/07 02:29:34;;;;;;;1.87;1.77;;;10.30;99.90;;;;;;5018719;28;20171;-72
2022/04/07 02:32:00;;;;;;;5.43;1.80;;;10.40;99.90;;;;;;5019496;28;20409;-72
2022/04/07 02:34:25;;;;;;;2.00;1.80;;;10.30;99.90;;;;;;5016946;28;20468;-72
2022/04/07 02:36:51;;;;;;;1.67;1.57;;;10.40;99.90;;;;;;5015447;28;20219;-72
2022/04/07 02:39:16;;;;;;;1.80;1.40;;;10.40;99.90;;;;;;5016019;28;20624;-72
2022/04/07 02:41:42;;;;;;;3.27;1.80;;;10.30;99.90;;;;;;5017498;28;20167;-72
2022/04/07 02:44:07;;;;;;;2.20;1.60;;;10.40;99.90;;;;;;5019204;28;20203;-72
2022/04/07 02:46:32;;;;;;;1.50;1.40;;;10.40;99.90;;;;;;5017887;28;20187;-72
2022/04/07 02:48:58;;;;;;;1.50;1.40;;;10.40;99.90;;;;;;5017823;28;20679;-72
2022/04/07 02:51:24;;;;;;;3.10;1.70;;;10.40;99.90;;;;;;5017888;28;20184;-71
2022/04/07 02:53:51;;;;;;;2.57;1.50;;;10.50;99.90;;;;;;5016678;28;20179;-72
2022/04/07 02:56:17;;;;;;;2.17;1.90;;;10.50;99.90;;;;;;5015882;28;20366;-72
2022/04/07 02:58:42;;;;;;;1.93;1.73;;;10.50;99.90;;;;;;5015337;28;20849;-72
2022/04/07 03:01:14;;;;;;;1.67;1.50;;;10.40;99.90;;;;;;5015111;28;20180;-72
2022/04/07 03:03:40;;;;;;;2.83;1.67;;;10.40;99.90;;;;;;5015726;28;20176;-72
2022/04/07 03:06:05;;;;;;;1.50;1.40;;;10.40;99.90;;;;;;5014281;28;20450;-72
2022/04/07 03:08:33;;;;;;;1.67;1.40;;;10.40;99.90;;;;;;5014863;28;20873;-72
2022/04/07 03:11:00;;;;;;;1.73;1.50;;;10.40;99.90;;;;;;5015172;28;20805;-72
2022/04/07 03:13:25;;;;;;;1.60;1.50;;;10.30;99.90;;;;;;5015322;28;20440;-71
2022/04/07 03:15:51;;;;;;;3.10;1.50;;;10.40;99.90;;;;;;5015120;28;20433;-71
2022/04/07 03:18:16;;;;;;;1.60;1.50;;;10.40;99.90;;;;;;5015005;28;20234;-71
2022/04/07 03:20:42;;;;;;;2.23;1.50;;;10.40;99.90;;;;;;5014580;28;20701;-71
2022/04/07 03:23:08;;;;;;;2.30;1.63;;;10.40;99.90;;;;;;5014772;28;20179;-72
2022/04/07 03:25:34;;;;;;;1.83;1.70;;;10.40;99.90;;;;;;5014724;28;20901;-72
2022/04/07 03:28:00;;;;;;;1.70;1.60;;;10.40;99.90;;;;;;5014946;28;20541;-71
2022/04/07 03:30:25;;;;;;;2.80;1.67;;;10.40;99.90;;;;;;5014135;28;20536;-71
2022/04/07 03:32:51;;;;;;;1.80;1.50;;;10.40;99.90;;;;;;5014850;28;20167;-71
2022/04/07 03:35:16;;;;;;;2.20;1.60;;;10.40;99.90;;;;;;5013857;28;20198;-71
2022/04/07 03:37:42;;;;;;;1.43;1.33;;;10.40;99.90;;;;;;5014470;28;20194;-71
2022/04/07 03:40:08;;;;;;;1.80;1.33;;;10.40;99.90;;;;;;5013976;28;20264;-72
2022/04/07 03:42:34;;;;;;;1.53;1.20;;;10.40;99.90;;;;;;5014911;28;20548;-71
2022/04/07 03:44:59;;;;;;;2.10;1.47;;;10.50;99.90;;;;;;5014388;28;20513;-72
2022/04/07 03:47:25;;;;;;;2.33;1.40;;;10.50;99.90;;;;;;5014577;28;20211;-72
2022/04/07 03:49:51;;;;;;;1.70;1.60;;;10.50;99.90;;;;;;5014385;28;20182;-71
2022/04/07 03:52:16;;;;;;;4.03;1.50;;;10.50;99.90;;;;;;5014486;28;20406;-72
2022/04/07 03:54:42;;;;;;;1.50;1.40;;;10.50;99.90;;;;;;5014573;28;20540;-71
2022/04/07 03:57:07;;;;;;;1.50;1.40;;;10.50;99.90;;;;;;5014391;28;20234;-72
2022/04/07 03:59:38;;;;;;;3.00;1.20;;;10.50;99.90;;;;;;5015133;28;20175;-72
2022/04/07 04:02:06;;;;;;;3.73;1.70;;;10.50;99.90;;;;;;5014159;28;20199;-72
2022/04/07 04:04:32;;;;;;;3.27;1.70;;;10.60;99.90;;;;;;5012868;28;20422;-72
2022/04/07 04:06:58;;;;;;;1.63;1.53;;;10.60;99.90;;;;;;5012330;28;20438;-72
2022/04/07 04:09:23;;;;;;;1.70;1.60;;;10.50;99.90;;;;;;5013688;28;20410;-72
2022/04/07 04:11:49;;;;;;;1.37;1.27;;;10.60;99.90;;;;;;5014476;28;20640;-72
2022/04/07 04:14:14;;;;;;;2.20;1.73;;;10.60;99.90;;;;;;5014580;28;20175;-72
2022/04/07 04:16:41;;;;;;;3.60;1.40;;;10.60;99.90;;;;;;5014698;28;20242;-72
2022/04/07 04:19:07;;;;;;;3.60;1.77;;;10.60;99.90;;;;;;5013672;28;20218;-72
2022/04/07 04:21:33;;;;;;;1.47;1.37;;;10.60;99.90;;;;;;5014325;28;20542;-72
2022/04/07 04:23:59;;;;;;;2.60;1.53;;;10.60;99.90;;;;;;5014315;28;20920;-72
2022/04/07 04:26:24;;;;;;;3.07;1.60;;;10.60;99.90;;;;;;5033869;23;20235;-69
2022/04/07 04:28:50;;;;;;;2.33;1.30;;;10.60;99.90;;;;;;5004454;28;20266;-69
2022/04/07 04:31:15;;;;;;;1.43;1.20;;;10.60;99.90;;;;;;4993930;28;20247;-69
2022/04/07 04:33:41;;;;;;;1.67;1.40;;;10.70;99.90;;;;;;4994136;28;20239;-68
2022/04/07 04:36:07;;;;;;;7.67;1.80;;;10.70;99.90;;;;;;4993260;28;20172;-68
2022/04/07 04:38:32;;;;;;;2.47;1.30;;;10.70;99.90;;;;;;4993878;28;20164;-68
2022/04/07 04:40:58;;;;;;;3.00;1.67;;;10.60;99.90;;;;;;4993898;28;20652;-69
2022/04/07 04:43:23;;;;;;;3.03;1.43;;;10.70;99.90;;;;;;4993727;28;20195;-69
2022/04/07 04:45:49;;;;;;;3.43;1.73;;;10.70;99.90;;;;;;4993870;28;20208;-69
2022/04/07 04:48:14;;;;;;;1.53;1.43;;;10.70;99.90;;;;;;4993648;28;20673;-69
2022/04/07 04:50:40;;;;;;;1.90;1.37;;;10.70;99.90;;;;;;4993247;28;20169;-67
2022/04/07 04:53:05;;;;;;;3.60;1.50;;;10.70;99.90;;;;;;4993143;28;20224;-68
2022/04/07 04:55:31;;;;;;;1.93;1.43;;;10.70;99.90;;;;;;4993644;28;20222;-67
2022/04/07 04:57:56;;;;;;;2.20;1.50;;;10.70;99.90;;;;;;4993594;28;20180;-68
2022/04/07 05:00:22;;;;;;;2.07;1.37;;;10.70;99.90;;;;;;4992935;28;20176;-67
2022/04/07 05:02:47;;;;;;;2.80;1.37;;;10.70;99.90;;;;;;4993882;28;20188;-68
2022/04/07 05:05:13;;;;;;;2.10;1.50;;;10.70;99.90;;;;;;4992993;28;20420;-67
2022/04/07 05:07:38;;;;;;;2.50;1.73;;;10.80;99.90;;;;;;4993294;28;20490;-67
2022/04/07 05:10:05;;;;;;;1.20;1.10;;;10.70;99.90;;;;;;4992997;28;20169;-68
2022/04/07 05:12:30;;;;;;;1.20;1.20;;;10.60;99.90;;;;;;4994390;28;20549;-67
2022/04/07 05:14:56;;;;;;;1.10;1.00;;;10.60;99.90;;;;;;4994364;28;20407;-69
2022/04/07 05:17:22;;;;;;;2.73;1.30;;;10.60;99.90;;;;;;4994127;28;20192;-68
2022/04/07 05:19:49;;;;;;;1.30;1.20;;;10.60;99.90;;;;;;4994204;28;20419;-68
2022/04/07 05:22:18;;;;;;;2.10;1.20;;;10.60;99.90;;;;;;4998608;28;20195;-68
2022/04/07 05:24:44;;;;;;;1.80;1.53;;;10.60;99.90;;;;;;4989564;28;20592;-70
2022/04/07 05:27:10;;;;;;;1.80;1.57;;;10.50;99.90;;;;;;5008754;28;21041;-68
2022/04/07 05:29:35;;;;;;;2.10;1.67;;;10.50;99.90;;;;;;5008478;28;20172;-67
2022/04/07 05:32:01;;;;;;;1.47;1.23;;;10.50;99.90;;;;;;5008658;28;20438;-68
2022/04/07 05:34:26;;;;;;;1.80;1.53;;;10.50;99.90;;;;;;5009101;28;20337;-68
2022/04/07 05:36:52;;;;;;;1.67;1.57;;;10.50;99.90;;;;;;5008606;28;20203;-68
2022/04/07 05:39:17;;;;;;;1.47;1.37;;;10.50;99.90;;;;;;5005788;28;20230;-68
2022/04/07 05:41:43;;;;;;;2.20;2.00;;;10.40;99.90;;;;;;5006954;28;20416;-67
2022/04/07 05:44:08;;;;;;;2.67;1.93;;;10.40;99.90;;;;;;5007277;28;20238;-68
2022/04/07 05:46:34;;;;;;;2.20;1.70;;;10.50;99.90;;;;;;4988988;28;20366;-68
2022/04/07 05:48:59;;;;;;;1.70;1.60;;;10.50;99.90;;;;;;5007575;28;20296;-69
2022/04/07 05:51:25;;;;;;;1.73;1.57;;;10.40;99.90;;;;;;5006557;28;20729;-69
2022/04/07 05:53:51;;;;;;;2.40;2.20;;;10.30;99.90;;;;;;5006568;28;20696;-68
2022/04/07 05:56:16;;;;;;;1.77;1.67;;;10.40;99.90;;;;;;4989632;28;20294;-69
2022/04/07 05:58:42;;;;;;;2.20;2.03;;;10.40;99.90;;;;;;5008385;28;20644;-69
2022/04/07 06:01:07;;;;;;;2.80;2.50;;;10.40;99.90;;;;;;5007823;28;20322;-68
2022/04/07 06:03:33;;;;;;;2.83;2.60;;;10.40;99.90;;;;;;5009159;28;20717;-69
2022/04/07 06:05:58;;;;;;;2.37;2.17;;;10.40;99.90;;;;;;5009590;28;20208;-67
2022/04/07 06:08:24;;;;;;;2.40;2.10;;;10.40;99.90;;;;;;5015544;28;20254;-69
2022/04/07 06:10:50;;;;;;;3.63;2.20;;;10.40;99.90;;;;;;5009715;28;20231;-67
2022/04/07 06:13:15;;;;;;;1.77;1.67;;;10.40;99.90;;;;;;5010603;28;20950;-67
2022/04/07 06:16:03;;;;;;;1.87;1.77;;;10.40;99.90;;;;;;5030123;28;20757;-68
2022/04/07 06:18:37;;;;;;;2.37;2.00;;;10.40;99.90;;;;;;5014017;28;20215;-69
2022/04/07 06:21:03;;;;;;;3.53;2.37;;;10.40;99.90;;;;;;5010114;28;20571;-68
2022/04/07 06:23:31;;;;;;;2.37;2.17;;;10.40;99.90;;;;;;5010817;28;20529;-69
2022/04/07 06:25:57;;;;;;;3.23;2.30;;;10.40;99.90;;;;;;5000274;28;20212;-67
2022/04/07 06:28:22;;;;;;;1.87;1.77;;;10.40;99.90;;;;;;5010608;28;20574;-69
2022/04/07 06:30:51;;;;;;;3.27;2.20;;;10.40;99.90;;;;;;5010487;28;20199;-69
2022/04/07 06:33:17;;;;;;;1.77;1.67;;;10.40;99.90;;;;;;5010565;28;20242;-68
2022/04/07 06:35:43;;;;;;;4.90;1.90;;;10.30;99.90;;;;;;5010745;28;20543;-68
2022/04/07 06:38:09;;;;;;;1.97;1.80;;;10.30;99.90;;;;;;5009947;28;20470;-68
2022/04/07 06:40:34;;;;;;;2.27;2.03;;;10.30;99.90;;;;;;5011032;28;20690;-68
2022/04/07 06:43:00;;;;;;;3.20;1.70;;;10.30;99.90;;;;;;5010717;28;20211;-68
2022/04/07 06:45:27;;;;;;;2.43;2.20;;;10.30;99.90;;;;;;5011699;28;20206;-68
2022/04/07 06:47:53;;;;;;;3.40;2.17;;;10.40;99.90;;;;;;5010803;28;20226;-68
2022/04/07 06:50:19;;;;;;;2.90;1.80;;;10.40;99.90;;;;;;5010973;28;20438;-68
2022/04/07 06:52:45;;;;;;;2.60;2.40;;;10.40;99.90;;;;;;5010639;28;20446;-68
2022/04/07 06:55:13;;;;;;;2.00;1.70;;;10.40;99.90;;;;;;5011716;28;20450;-68
2022/04/07 06:57:52;;;;;;;2.30;2.10;;;10.30;99.90;;;;;;5010975;28;20195;-67
2022/04/07 07:00:23;;;;;;;3.13;2.50;;;10.30;99.90;;;;;;5010693;28;20430;-67
2022/04/07 07:02:53;;;;;;;2.40;1.50;;;10.40;99.90;;;;;;5011792;28;20779;-68
2022/04/07 07:05:23;;;;;;;2.23;2.03;;;10.40;99.90;;;;;;5011473;28;20501;-68
2022/04/07 07:07:48;;;;;;;2.03;1.80;;;10.50;99.90;;;;;;4992659;28;20465;-67
2022/04/07 07:10:20;;;;;;;1.67;1.40;;;10.40;99.90;;;;;;5010454;28;20451;-68
2022/04/07 07:12:46;;;;;;;2.93;2.10;;;10.50;99.90;;;;;;5010820;28;20561;-69
2022/04/07 07:15:11;;;;;;;2.07;1.80;;;10.50;99.90;;;;;;5012003;28;20489;-68
2022/04/07 07:17:40;;;;;;;3.10;2.20;;;10.50;99.90;;;;;;5014569;28;20254;-67
2022/04/07 07:20:07;;;;;;;1.40;1.30;;;10.50;99.90;;;;;;5013693;28;20671;-68
2022/04/07 07:22:33;;;;;;;1.83;1.63;;;10.60;99.90;;;;;;5013909;28;20422;-67
2022/04/07 07:25:00;;;;;;;3.07;1.67;;;10.60;99.90;;;;;;5003004;28;20470;-66
2022/04/07 07:27:26;;;;;;;1.57;1.40;;;10.60;99.90;;;;;;4994739;28;20479;-68
2022/04/07 07:29:51;;;;;;;1.70;1.50;;;10.60;99.90;;;;;;4994087;28;20496;-67
2022/04/07 07:32:17;;;;;;;1.40;1.20;;;10.60;99.90;;;;;;4994482;28;20212;-69
2022/04/07 07:34:42;;;;;;;1.87;1.50;;;10.70;99.90;;;;;;4994371;28;20204;-69
2022/04/07 07:37:08;;;;;;;1.60;1.40;;;10.60;99.90;;;;;;4992566;28;20613;-67
2022/04/07 07:39:34;;;;;;;1.30;1.20;;;10.60;99.90;;;;;;5003670;28;20642;-66
2022/04/07 07:41:59;;;;;;;1.57;1.47;;;10.60;99.90;;;;;;5014619;28;20535;-68
2022/04/07 07:44:25;;;;;;;1.20;1.10;;;10.60;99.90;;;;;;5014766;28;20175;-68
2022/04/07 07:46:51;;;;;;;1.00;1.00;;;10.60;99.90;;;;;;5014502;28;20540;-69
2022/04/07 07:49:16;;;;;;;1.37;0.90;;;10.60;99.90;;;;;;5013900;28;20648;-68
2022/04/07 07:51:42;;;;;;;1.30;1.10;;;10.60;99.90;;;;;;5014456;28;20787;-68
2022/04/07 07:54:08;;;;;;;2.30;1.20;;;10.60;99.90;;;;;;5015122;28;20410;-67
2022/04/07 07:56:33;;;;;;;1.00;1.00;;;10.60;99.90;;;;;;5014556;28;20203;-68
2022/04/07 07:58:59;;;;;;;1.30;1.20;;;10.60;99.90;;;;;;5014421;28;20188;-68
2022/04/07 08:01:24;;;;;;;1.37;1.27;;;10.60;99.90;;;;;;5014024;28;20184;-68
2022/04/07 08:03:50;;;;;;;2.40;1.73;;;10.60;99.90;;;;;;5014526;28;20171;-70
2022/04/07 08:06:15;;;;;;;1.93;1.60;;;10.60;99.90;;;;;;4997192;28;20782;-67
2022/04/07 08:08:41;;;;;;;3.73;1.50;;;10.60;99.90;;;;;;5014375;28;20218;-67
2022/04/07 08:11:07;;;;;;;1.27;1.10;;;10.60;99.90;;;;;;5014674;28;20261;-68
2022/04/07 08:13:32;;;;;;;2.40;1.63;;;10.60;99.90;;;;;;5014502;28;20168;-67
2022/04/07 08:15:58;;;;;;;0.90;0.90;;;10.60;99.90;;;;;;5014598;28;20171;-68
2022/04/07 08:18:23;;;;;;;3.50;2.00;;;10.60;99.90;;;;;;5014536;28;20200;-68
2022/04/07 08:20:52;;;;;;;6.70;3.20;;;10.60;99.90;;;;;;5013951;28;20211;-68
2022/04/07 08:23:17;;;;;;;2.10;1.70;;;10.70;99.90;;;;;;5014160;28;20171;-68
2022/04/07 08:25:43;;;;;;;1.90;1.10;;;10.70;99.90;;;;;;5013101;28;20521;-67
2022/04/07 08:28:10;;;;;;;2.90;1.70;;;10.60;99.90;;;;;;5014243;28;20671;-68
2022/04/07 08:30:35;;;;;;;1.90;1.10;;;10.60;99.90;;;;;;5013749;28;20176;-67
2022/04/07 08:33:02;;;;;;;2.73;1.87;;;10.70;99.90;;;;;;5014298;28;20410;-67
2022/04/07 08:35:28;;;;;;;1.07;0.73;;;10.70;99.90;;;;;;5013577;28;20588;-68
2022/04/07 08:37:53;;;;;;;0.77;0.77;;;10.70;99.90;;;;;;5014725;28;20443;-68
2022/04/07 08:40:22;;;;;;;1.83;1.10;;;10.70;99.90;;;;;;5013802;28;20180;-68
2022/04/07 08:42:48;;;;;;;1.50;1.40;;;10.70;99.90;;;;;;5013972;28;20602;-67
2022/04/07 08:45:14;;;;;;;0.87;0.87;;;10.70;99.90;;;;;;5013832;28;20457;-67
2022/04/07 08:47:40;;;;;;;1.10;0.77;;;10.80;99.90;;;;;;5013671;28;20502;-68
2022/04/07 08:50:07;;;;;;;0.60;0.60;;;10.80;99.90;;;;;;5013028;28;20187;-68
2022/04/07 08:52:34;;;;;;;0.70;0.70;;;10.80;99.90;;;;;;5013583;28;20454;-69
2022/04/07 08:55:00;;;;;;;0.70;0.70;;;10.80;99.90;;;;;;5013551;28;20964;-67
2022/04/07 08:57:29;;;;;;;0.67;0.60;;;10.80;99.90;;;;;;5013512;28;20524;-68
2022/04/07 08:59:55;;;;;;;;;;;10.80;99.90;;;;;;5013472;28;20573;-68
2022/04/07 09:02:21;;;;;;;;;;;10.80;99.90;;;;;;5013017;28;20004;-68
2022/04/07 09:04:46;;;;;;;;;;;10.90;99.90;;;;;;5015635;28;20414;-68
2022/04/07 09:07:13;;;;;;;;;;;10.90;99.90;;;;;;5013556;28;19920;-68
2022/04/07 09:09:39;;;;;;;;;;;11.00;99.90;;;;;;5012709;28;19916;-68
2022/04/07 09:12:04;;;;;;;;;;;11.10;99.90;;;;;;5012914;28;20382;-67
2022/04/07 09:14:34;;;;;;;;;;;11.10;99.90;;;;;;5013013;28;20004;-66
2022/04/07 09:16:59;;;;;;;;;;;11.10;99.90;;;;;;5012617;28;19910;-67
2022/04/07 09:19:25;;;;;;;;;;;11.10;99.90;;;;;;5012267;28;19920;-68
2022/04/07 09:22:03;;;;;;;;;;;11.20;99.90;;;;;;5012791;28;19996;-67
2022/04/07 09:24:28;;;;;;;;;;;11.20;99.90;;;;;;4995661;28;19956;-68
2022/04/07 09:26:54;;;;;;;;;;;11.20;99.90;;;;;;5012096;28;20353;-68
2022/04/07 09:29:19;;;;;;;;;;;11.30;99.90;;;;;;5012490;28;19964;-67
2022/04/07 09:31:52;;;;;;;;;;;11.30;99.90;;;;;;5012583;28;20000;-68
2022/04/07 09:34:31;;;;;;;;;;;11.40;99.90;;;;;;5012564;28;20374;-68
2022/04/07 09:37:05;;;;;;;;;;;11.40;99.90;;;;;;5011931;28;20305;-68
2022/04/07 09:39:30;;;;;;;;;;;11.50;99.90;;;;;;5012147;28;19916;-68
2022/04/07 09:42:16;;;;;;;;;;;11.50;99.90;;;;;;5012348;28;20062;-68
2022/04/07 09:44:41;;;;;;;;;;;11.50;99.90;;;;;;5012039;28;19932;-68
2022/04/07 09:47:10;;;;;;;;;;;11.70;99.90;;;;;;5012368;28;20394;-68
2022/04/07 09:49:36;;;;;;;;;;;11.80;99.90;;;;;;5012201;28;19956;-68
2022/04/07 09:52:02;;;;;;;;;;;11.80;99.90;;;;;;5011993;28;19910;-67
2022/04/07 09:54:28;;;;;;;;;;;11.70;99.90;;;;;;5012180;28;20378;-68
2022/04/07 09:56:54;;;;;;;;;;;11.70;99.90;;;;;;5011914;28;19914;-68
2022/04/07 09:59:20;;;;;;;;;;;11.70;99.90;;;;;;5011879;28;19913;-65
2022/04/07 10:01:48;;;;;;;;;;;11.60;99.90;;;;;;5012013;28;19910;-69
2022/04/07 10:04:16;;;;;;;;;;;11.60;99.90;;;;;;5015335;28;19957;-72
2022/04/07 10:06:42;;;;;;;;;;;11.10;99.90;;;;;;5000293;28;19917;-73
2022/04/07 10:09:09;;;;;;;;;;;10.50;99.90;;;;;;5017730;28;19914;-70
2022/04/07 10:11:35;;;;;;;;;;;9.90;99.90;;;;;;5017367;28;19910;-71
2022/04/07 10:14:01;;;;;;;;;;;9.70;99.90;;;;;;5017184;28;19936;-71
2022/04/07 10:16:27;;;;;;;;;;;9.50;99.90;;;;;;4998531;28;19909;-71
2022/04/07 10:18:57;;;;;;;;;;;9.40;99.90;;;;;;4997950;28;19921;-70
2022/04/07 10:21:35;;;;;;;;;;;9.40;99.90;;;;;;5014634;28;19910;-70
2022/04/07 10:24:03;;;;;;;;;;;9.50;99.90;;;;;;4997383;28;19910;-70
2022/04/07 10:26:29;;;;;;;;;;;9.30;99.90;;;;;;5012692;28;20357;-70
2022/04/07 10:28:57;;;;;;;;;;;9.30;99.90;;;;;;5013142;28;19913;-68
2022/04/07 10:31:25;;;;;;;;;;;9.30;99.90;;;;;;5012373;28;19914;-68
2022/04/07 10:33:50;;;;;;;;;;;9.30;99.90;;;;;;4993972;28;20397;-67
2022/04/07 10:36:20;;;;;;;;;;;9.50;99.90;;;;;;5011170;28;19910;-68
2022/04/07 10:38:51;;;;;;;;;;;9.50;99.90;;;;;;5011792;28;19922;-67
2022/04/07 10:41:35;;;;;;;;;;;9.60;99.90;;;;;;5011245;28;19971;-67
2022/04/07 10:44:26;;;;;;;;;;;9.70;99.90;;;;;;5011285;28;19909;-68
2022/04/07 10:47:07;;;;;;;;;;;9.80;99.90;;;;;;5000725;28;19911;-66
2022/04/07 10:49:33;;;;;;;;;;;9.90;99.90;;;;;;4992694;28;19917;-69
2022/04/07 10:51:59;;;;;;;;;;;10.00;99.90;;;;;;4995327;28;19914;-69
2022/04/07 10:54:28;;;;;;;;;;;10.20;99.90;;;;;;4995713;28;19957;-68
2022/04/07 10:56:56;;;;;;;;;;;10.30;99.90;;;;;;4978300;28;20390;-67
2022/04/07 10:59:26;;;;;;;;;;;10.40;99.90;;;;;;4995486;28;20282;-67
2022/04/07 11:01:55;;;;;;;;;;;10.60;99.90;;;;;;4999889;28;19953;-68
2022/04/07 11:04:23;;;;;;;;;;;10.70;99.90;;;;;;5015706;28;20381;-66
2022/04/07 11:07:19;;;;;;;;;;;10.80;99.90;;;;;;5015110;28;19984;-69
2022/04/07 11:09:53;;;;;;;;;;;10.80;99.90;;;;;;5015775;28;19914;-67
2022/04/07 11:12:34;;;;;;;;;;;10.90;99.90;;;;;;5014999;28;19921;-67
2022/04/07 11:15:02;;;;;;;;;;;10.90;99.90;;;;;;5014240;28;20570;-67
2022/04/07 11:17:32;;;;;;;;;;;10.90;99.90;;;;;;4998134;28;20371;-66
2022/04/07 11:20:13;;;;;;;;;;;11.10;99.90;;;;;;5015835;28;19909;-67
2022/04/07 11:22:57;;;;;;;;;;;11.00;99.90;;;;;;4998729;28;19916;-68
2022/04/07 11:25:28;;;;;;;;;;;11.20;99.90;;;;;;5015336;28;19909;-68
2022/04/07 11:28:06;;;;;;;;;;;11.30;99.90;;;;;;5014996;28;19924;-66
2022/04/07 11:30:39;;;;;;;;;;;11.40;99.90;;;;;;5015485;28;19916;-68
2022/04/07 11:33:20;;;;;;;;;;;11.50;99.90;;;;;;4997912;28;20316;-65
2022/04/07 11:36:00;;;;;;;;;;;11.60;99.90;;;;;;5014988;28;19920;-67
2022/04/07 11:38:37;;;;;;;;;;;11.60;99.90;;;;;;5015172;28;20446;-67
2022/04/07 11:41:13;;;;;;;;;;;11.70;99.90;;;;;;5015005;28;19976;-67
2022/04/07 11:43:39;;;;;;;;;;;11.70;99.90;;;;;;4998205;28;19909;-68
2022/04/07 11:46:05;;;;;;;;;;;11.80;99.90;;;;;;5016379;28;19917;-66
2022/04/07 11:48:40;;;;;;;;;;;11.90;99.90;;;;;;5019262;28;20478;-69
2022/04/07 11:51:13;;;;;;;;;;;11.70;99.90;;;;;;4999293;28;19913;-67
2022/04/07 11:53:39;;;;;;;;;;;11.80;99.90;;;;;;5015399;28;19910;-68
2022/04/07 11:56:11;;;;;;;;;;;11.90;99.90;;;;;;5015233;28;19909;-68
2022/04/07 11:58:37;;;;;;;;;;;11.90;99.90;;;;;;5014270;28;20087;-68
2022/04/07 12:01:06;;;;;;;;;;;12.00;99.90;;;;;;5013714;28;20456;-67
2022/04/07 12:03:31;;;;;;;;;;;12.10;99.90;;;;;;5014247;28;19909;-67
2022/04/07 12:05:59;;;;;;;;;;;12.30;99.90;;;;;;5013880;28;19916;-67
2022/04/07 12:08:25;;;;;;;;;;;12.40;99.00;;;;;;5013972;28;19920;-67
2022/04/07 12:10:51;;;;;;;;;;;12.40;99.00;;;;;;5014129;28;19914;-67
2022/04/07 12:13:16;;;;;;;;;;;12.40;96.90;;;;;;5013882;28;19920;-66
2022/04/07 12:15:42;;;;;;;;;;;12.50;96.70;;;;;;5013955;28;19916;-67
2022/04/07 12:18:08;;;;;;;;;;;12.50;97.00;;;;;;5013662;28;19964;-67
2022/04/07 12:20:35;;;;;;;;;;;12.50;95.60;;;;;;5013614;28;19919;-68
2022/04/07 12:23:03;;;;;;;;;;;12.50;94.80;;;;;;5014087;28;20323;-67
2022/04/07 12:25:29;;;;;;;;;;;12.60;95.30;;;;;;5013451;28;19917;-67
2022/04/07 12:28:05;;;;;;;;;;;12.60;95.20;;;;;;5013448;28;20017;-67
2022/04/07 12:30:43;;;;;;;;;;;12.50;93.60;;;;;;5013179;28;19985;-67
2022/04/07 12:33:09;;;;;;;;;;;12.40;94.00;;;;;;5013775;28;19909;-67
2022/04/07 12:35:44;;;;;;;;;;;12.40;95.00;;;;;;5013041;28;19910;-67
2022/04/07 12:38:10;;;;;;;;;;;12.40;95.80;;;;;;5013714;28;19916;-67
2022/04/07 12:40:37;;;;;;;;;;;12.40;95.60;;;;;;5013388;28;20370;-69
2022/04/07 12:43:03;;;;;;;;;;;12.40;94.70;;;;;;5012680;28;19913;-67
2022/04/07 12:45:28;;;;;;;;;;;12.50;94.20;;;;;;5012533;28;19910;-68
2022/04/07 12:48:00;;;;;;;;;;;12.50;92.70;;;;;;5012858;28;20370;-69
2022/04/07 12:50:27;;;;;;;;;;;12.60;93.00;;;;;;4993057;28;19921;-68
2022/04/07 12:52:52;;;;;;;;;;;12.80;91.70;;;;;;4999363;28;19920;-67
2022/04/07 12:55:19;;;;;;;;;;;12.90;91.40;;;;;;5013061;28;19911;-67
2022/04/07 12:57:45;;;;;;;;;;;13.10;91.90;;;;;;5013000;28;20661;-68
2022/04/07 13:00:12;;;;;;;;;;;13.10;91.10;;;;;;5012886;28;19910;-66
2022/04/07 13:02:42;;;;;;;;;;;13.20;90.90;;;;;;5013100;28;19965;-68
2022/04/07 13:05:08;;;;;;;;;;;13.30;90.10;;;;;;5012563;28;19910;-68
2022/04/07 13:07:33;;;;;;;;;;;13.10;83.70;;;;;;4995537;28;19917;-68
2022/04/07 13:09:59;;;;;;;;;;;13.00;84.70;;;;;;5012909;28;19964;-68
2022/04/07 13:12:24;;;;;;;;;;;13.00;86.10;;;;;;5012444;28;19964;-68
2022/04/07 13:14:52;;;;;;;;;;;13.10;87.60;;;;;;5012668;28;19909;-68